RYR8589 ESNS-EPGD
Flight info
| Callsign | RYR8589 |
|---|---|
| Flight time | 2h 5m |
| Altitude | 34000 |
| Route | KETEL DCT ROGMI DCT OLANU DCT PENOR DCT MOTAD N133 DOMAG T240 OGDAV |
| Aircraft | B738/M-SDE3FGILRWY/SB1 |
Departure
| Time | 2026-05-09 15:36 |
|---|---|
| Airport | Skellefteå Airport (ESNS) |
Arrival
| Time | 2026-05-09 17:41 |
|---|---|
| Airport | Gdańsk Lech Wałęsa Airport (EPGD) |
| Time | Latitude | Longitude | Altitude | Speed | Heading |
|---|---|---|---|---|---|
| 2026-05-09 14:59 | 64.62376 | 21.06793 | 159 ft | 0 kts | 236° |
| 2026-05-09 15:25 | 64.62382 | 21.06814 | 159 ft | 2 kts | 236° |
| 2026-05-09 15:25 | 64.62391 | 21.06846 | 159 ft | 2 kts | 236° |
| 2026-05-09 15:25 | 64.62400 | 21.06878 | 159 ft | 2 kts | 237° |
| 2026-05-09 15:26 | 64.62408 | 21.06924 | 159 ft | 0 kts | 284° |
| 2026-05-09 15:31 | 64.62410 | 21.06900 | 159 ft | 5 kts | 285° |
| 2026-05-09 15:31 | 64.62435 | 21.06828 | 159 ft | 6 kts | 325° |
| 2026-05-09 15:31 | 64.62481 | 21.06813 | 158 ft | 0 kts | 13° |
| 2026-05-09 15:32 | 64.62487 | 21.06817 | 158 ft | 3 kts | 15° |
| 2026-05-09 15:32 | 64.62517 | 21.06845 | 159 ft | 6 kts | 22° |
| 2026-05-09 15:32 | 64.62564 | 21.06826 | 160 ft | 9 kts | 329° |
| 2026-05-09 15:33 | 64.62606 | 21.06650 | 157 ft | 16 kts | 289° |
| 2026-05-09 15:33 | 64.62640 | 21.06391 | 152 ft | 18 kts | 288° |
| 2026-05-09 15:33 | 64.62676 | 21.06109 | 156 ft | 18 kts | 283° |
| 2026-05-09 15:33 | 64.62692 | 21.05831 | 158 ft | 17 kts | 262° |
| 2026-05-09 15:34 | 64.62711 | 21.05607 | 162 ft | 15 kts | 351° |
| 2026-05-09 15:34 | 64.62726 | 21.05634 | 161 ft | 2 kts | 79° |
| 2026-05-09 15:34 | 64.62727 | 21.05670 | 160 ft | 2 kts | 94° |
| 2026-05-09 15:34 | 64.62725 | 21.05701 | 160 ft | 0 kts | 104° |
| 2026-05-09 15:35 | 64.62717 | 21.05768 | 160 ft | 23 kts | 105° |
| 2026-05-09 15:36 | 64.62579 | 21.06863 | 160 ft | 115 kts | 107° |
| 2026-05-09 15:36 | 64.62277 | 21.09199 | 438 ft | 169 kts | 105° |
| 2026-05-09 15:36 | 64.62089 | 21.11993 | 1525 ft | 183 kts | 107° |
| 2026-05-09 15:36 | 64.61985 | 21.15099 | 2535 ft | 205 kts | 98° |
| 2026-05-09 15:37 | 64.61906 | 21.18656 | 2961 ft | 235 kts | 103° |
| 2026-05-09 15:37 | 64.61698 | 21.22553 | 3429 ft | 246 kts | 105° |
| 2026-05-09 15:37 | 64.61441 | 21.26520 | 3975 ft | 253 kts | 105° |
| 2026-05-09 15:37 | 64.61126 | 21.30713 | 4365 ft | 269 kts | 106° |
| 2026-05-09 15:38 | 64.60785 | 21.34992 | 5164 ft | 272 kts | 106° |
| 2026-05-09 15:38 | 64.60426 | 21.39329 | 5995 ft | 275 kts | 106° |
| 2026-05-09 15:38 | 64.60045 | 21.43739 | 6738 ft | 280 kts | 106° |
| 2026-05-09 15:38 | 64.59653 | 21.48193 | 7530 ft | 281 kts | 106° |
| 2026-05-09 15:39 | 64.59232 | 21.52654 | 8320 ft | 283 kts | 113° |
| 2026-05-09 15:39 | 64.58258 | 21.56503 | 9085 ft | 274 kts | 140° |
| 2026-05-09 15:39 | 64.56691 | 21.58807 | 9850 ft | 266 kts | 166° |
| 2026-05-09 15:39 | 64.54868 | 21.59157 | 10505 ft | 266 kts | 191° |
| 2026-05-09 15:40 | 64.53007 | 21.58052 | 10700 ft | 288 kts | 199° |
| 2026-05-09 15:40 | 64.51064 | 21.56571 | 10945 ft | 307 kts | 200° |
| 2026-05-09 15:40 | 64.49014 | 21.54952 | 11467 ft | 315 kts | 200° |
| 2026-05-09 15:40 | 64.46960 | 21.53105 | 12154 ft | 318 kts | 207° |
| 2026-05-09 15:41 | 64.44988 | 21.50718 | 12940 ft | 321 kts | 210° |
| 2026-05-09 15:41 | 64.43017 | 21.48212 | 13675 ft | 325 kts | 210° |
| 2026-05-09 15:41 | 64.41020 | 21.45661 | 14374 ft | 330 kts | 210° |
| 2026-05-09 15:41 | 64.39000 | 21.43084 | 15091 ft | 333 kts | 210° |
| 2026-05-09 15:42 | 64.36970 | 21.40493 | 15840 ft | 336 kts | 210° |
| 2026-05-09 15:42 | 64.34938 | 21.37899 | 16527 ft | 340 kts | 210° |
| 2026-05-09 15:42 | 64.32856 | 21.35244 | 17226 ft | 344 kts | 210° |
| 2026-05-09 15:42 | 64.30749 | 21.32556 | 17930 ft | 348 kts | 210° |
| 2026-05-09 15:43 | 64.28623 | 21.29845 | 18599 ft | 352 kts | 210° |
| 2026-05-09 15:43 | 64.26458 | 21.27152 | 19183 ft | 356 kts | 207° |
| 2026-05-09 15:43 | 64.24148 | 21.25047 | 19763 ft | 361 kts | 198° |
| 2026-05-09 15:43 | 64.21665 | 21.23862 | 20354 ft | 366 kts | 192° |
| 2026-05-09 15:44 | 64.19284 | 21.21902 | 20871 ft | 366 kts | 214° |
| 2026-05-09 15:44 | 64.17268 | 21.18489 | 21474 ft | 367 kts | 214° |
| 2026-05-09 15:44 | 64.14921 | 21.15868 | 22014 ft | 374 kts | 202° |
| 2026-05-09 15:44 | 64.12456 | 21.14074 | 22559 ft | 379 kts | 198° |
| 2026-05-09 15:45 | 64.09895 | 21.12536 | 23077 ft | 383 kts | 197° |
| 2026-05-09 15:45 | 64.07292 | 21.11055 | 23601 ft | 387 kts | 197° |
| 2026-05-09 15:45 | 64.04668 | 21.09548 | 24071 ft | 390 kts | 197° |
| 2026-05-09 15:45 | 64.02037 | 21.07993 | 24526 ft | 392 kts | 198° |
| 2026-05-09 15:46 | 63.99397 | 21.06390 | 24997 ft | 394 kts | 198° |
| 2026-05-09 15:46 | 63.96741 | 21.04744 | 25430 ft | 396 kts | 198° |
| 2026-05-09 15:46 | 63.94124 | 21.03102 | 25857 ft | 399 kts | 199° |
| 2026-05-09 15:46 | 63.91431 | 21.01401 | 26289 ft | 401 kts | 199° |
| 2026-05-09 15:47 | 63.88746 | 20.99700 | 26717 ft | 403 kts | 199° |
| 2026-05-09 15:47 | 63.86042 | 20.97986 | 27110 ft | 405 kts | 199° |
| 2026-05-09 15:47 | 63.83311 | 20.96256 | 27502 ft | 408 kts | 199° |
| 2026-05-09 15:47 | 63.80564 | 20.94520 | 27898 ft | 410 kts | 199° |
| 2026-05-09 15:48 | 63.77811 | 20.92784 | 28288 ft | 412 kts | 199° |
| 2026-05-09 15:48 | 63.75036 | 20.91038 | 28678 ft | 414 kts | 199° |
| 2026-05-09 15:48 | 63.72270 | 20.89301 | 29175 ft | 413 kts | 199° |
| 2026-05-09 15:48 | 63.69534 | 20.87591 | 29761 ft | 410 kts | 199° |
| 2026-05-09 15:49 | 63.66794 | 20.85881 | 30300 ft | 409 kts | 200° |
| 2026-05-09 15:49 | 63.64047 | 20.84168 | 30676 ft | 409 kts | 200° |
| 2026-05-09 15:49 | 63.61307 | 20.82461 | 31023 ft | 409 kts | 200° |
| 2026-05-09 15:49 | 63.58565 | 20.80756 | 31411 ft | 409 kts | 200° |
| 2026-05-09 15:50 | 63.55827 | 20.79058 | 31804 ft | 408 kts | 200° |
| 2026-05-09 15:50 | 63.53083 | 20.77359 | 32169 ft | 408 kts | 200° |
| 2026-05-09 15:50 | 63.50355 | 20.75673 | 32521 ft | 408 kts | 200° |
| 2026-05-09 15:50 | 63.47614 | 20.73984 | 32893 ft | 407 kts | 200° |
| 2026-05-09 15:51 | 63.44924 | 20.72328 | 33253 ft | 407 kts | 200° |
| 2026-05-09 15:51 | 63.42183 | 20.70645 | 33575 ft | 408 kts | 200° |
| 2026-05-09 15:51 | 63.39451 | 20.68969 | 33891 ft | 408 kts | 200° |
| 2026-05-09 15:51 | 63.36713 | 20.67295 | 34238 ft | 408 kts | 200° |
| 2026-05-09 15:52 | 63.28407 | 20.62230 | 34225 ft | 412 kts | 200° |
| 2026-05-09 15:53 | 63.22973 | 20.58944 | 34234 ft | 407 kts | 200° |
| 2026-05-09 15:53 | 63.17507 | 20.55642 | 34245 ft | 408 kts | 200° |
| 2026-05-09 15:54 | 63.12025 | 20.52342 | 34240 ft | 409 kts | 200° |
| 2026-05-09 15:54 | 63.06529 | 20.49047 | 34240 ft | 410 kts | 200° |
| 2026-05-09 15:55 | 63.01025 | 20.45762 | 34241 ft | 411 kts | 200° |
| 2026-05-09 15:55 | 62.95529 | 20.42494 | 34243 ft | 412 kts | 200° |
| 2026-05-09 15:56 | 62.89989 | 20.39214 | 34239 ft | 413 kts | 200° |
| 2026-05-09 15:56 | 62.84443 | 20.35942 | 34236 ft | 414 kts | 200° |
| 2026-05-09 15:57 | 62.78877 | 20.32672 | 34245 ft | 414 kts | 200° |
| 2026-05-09 15:57 | 62.73347 | 20.29435 | 34245 ft | 415 kts | 200° |
| 2026-05-09 15:58 | 62.67768 | 20.26183 | 34235 ft | 415 kts | 200° |
| 2026-05-09 15:58 | 62.62189 | 20.22943 | 34244 ft | 415 kts | 200° |
| 2026-05-09 15:59 | 62.56603 | 20.19712 | 34244 ft | 415 kts | 200° |
| 2026-05-09 15:59 | 62.51085 | 20.16533 | 34247 ft | 416 kts | 200° |
| 2026-05-09 16:00 | 62.45466 | 20.13307 | 34239 ft | 416 kts | 200° |
| 2026-05-09 16:00 | 62.39867 | 20.10106 | 34247 ft | 416 kts | 200° |
| 2026-05-09 16:01 | 62.34260 | 20.06912 | 34239 ft | 417 kts | 200° |
| 2026-05-09 16:01 | 62.28641 | 20.03723 | 34243 ft | 417 kts | 200° |
| 2026-05-09 16:02 | 62.23054 | 20.00565 | 34247 ft | 418 kts | 200° |
| 2026-05-09 16:02 | 62.14597 | 19.95808 | 34250 ft | 420 kts | 200° |
| 2026-05-09 16:03 | 62.08939 | 19.92657 | 34242 ft | 421 kts | 199° |
| 2026-05-09 16:03 | 62.03270 | 19.89532 | 34245 ft | 421 kts | 200° |
| 2026-05-09 16:04 | 61.97641 | 19.86409 | 34246 ft | 421 kts | 200° |
| 2026-05-09 16:04 | 61.91969 | 19.83262 | 34246 ft | 421 kts | 200° |
| 2026-05-09 16:05 | 61.86298 | 19.80120 | 34247 ft | 422 kts | 200° |
| 2026-05-09 16:05 | 61.80614 | 19.76992 | 34244 ft | 422 kts | 200° |
| 2026-05-09 16:06 | 61.74965 | 19.73901 | 34249 ft | 422 kts | 200° |
| 2026-05-09 16:06 | 61.69266 | 19.70795 | 34248 ft | 423 kts | 200° |
| 2026-05-09 16:07 | 61.63574 | 19.67700 | 34246 ft | 423 kts | 200° |
| 2026-05-09 16:07 | 61.57863 | 19.64596 | 34251 ft | 424 kts | 200° |
| 2026-05-09 16:08 | 61.52191 | 19.61535 | 34254 ft | 424 kts | 200° |
| 2026-05-09 16:08 | 61.46475 | 19.58467 | 34252 ft | 424 kts | 200° |
| 2026-05-09 16:09 | 61.40749 | 19.55406 | 34250 ft | 425 kts | 199° |
| 2026-05-09 16:09 | 61.35020 | 19.52355 | 34253 ft | 425 kts | 199° |
| 2026-05-09 16:10 | 61.29287 | 19.49312 | 34252 ft | 425 kts | 199° |
| 2026-05-09 16:10 | 61.23550 | 19.46279 | 34249 ft | 426 kts | 199° |
| 2026-05-09 16:11 | 61.17810 | 19.43256 | 34249 ft | 426 kts | 199° |
| 2026-05-09 16:11 | 61.12100 | 19.40260 | 34251 ft | 426 kts | 199° |
| 2026-05-09 16:12 | 61.06350 | 19.37254 | 34251 ft | 426 kts | 199° |
| 2026-05-09 16:12 | 61.00599 | 19.34259 | 34250 ft | 426 kts | 199° |
| 2026-05-09 16:13 | 60.94851 | 19.31276 | 34247 ft | 426 kts | 199° |
| 2026-05-09 16:13 | 60.89093 | 19.28300 | 34249 ft | 427 kts | 199° |
| 2026-05-09 16:14 | 60.84306 | 19.25834 | 34249 ft | 427 kts | 199° |
| 2026-05-09 16:14 | 60.77605 | 19.22394 | 34255 ft | 427 kts | 199° |
| 2026-05-09 16:15 | 60.72775 | 19.19924 | 34252 ft | 428 kts | 198° |
| 2026-05-09 16:15 | 60.67039 | 19.17000 | 34253 ft | 428 kts | 198° |
| 2026-05-09 16:16 | 60.61260 | 19.14066 | 34253 ft | 428 kts | 198° |
| 2026-05-09 16:16 | 60.55476 | 19.11140 | 34251 ft | 429 kts | 198° |
| 2026-05-09 16:17 | 60.49681 | 19.08219 | 34251 ft | 429 kts | 198° |
| 2026-05-09 16:17 | 60.43931 | 19.05332 | 34255 ft | 429 kts | 198° |
| 2026-05-09 16:18 | 60.38126 | 19.02427 | 34254 ft | 430 kts | 198° |
| 2026-05-09 16:18 | 60.32322 | 18.99533 | 34253 ft | 430 kts | 198° |
| 2026-05-09 16:19 | 60.26508 | 18.96646 | 34250 ft | 430 kts | 198° |
| 2026-05-09 16:19 | 60.20698 | 18.93770 | 34254 ft | 430 kts | 197° |
| 2026-05-09 16:20 | 60.14888 | 18.90905 | 34257 ft | 430 kts | 197° |
| 2026-05-09 16:20 | 60.09109 | 18.88066 | 34258 ft | 431 kts | 197° |
| 2026-05-09 16:21 | 60.03284 | 18.85215 | 34256 ft | 431 kts | 197° |
| 2026-05-09 16:21 | 59.97459 | 18.82374 | 34263 ft | 431 kts | 197° |
| 2026-05-09 16:22 | 59.91635 | 18.79544 | 34259 ft | 431 kts | 197° |
| 2026-05-09 16:22 | 59.85804 | 18.76720 | 34259 ft | 431 kts | 197° |
| 2026-05-09 16:23 | 59.79971 | 18.73906 | 34264 ft | 431 kts | 197° |
| 2026-05-09 16:23 | 59.74180 | 18.71122 | 34265 ft | 431 kts | 196° |
| 2026-05-09 16:24 | 59.68351 | 18.68330 | 34262 ft | 431 kts | 196° |
| 2026-05-09 16:24 | 59.62526 | 18.65549 | 34267 ft | 431 kts | 196° |
| 2026-05-09 16:25 | 59.56730 | 18.62792 | 34266 ft | 431 kts | 196° |
| 2026-05-09 16:25 | 59.50900 | 18.60030 | 34267 ft | 431 kts | 195° |
| 2026-05-09 16:26 | 59.45073 | 18.57278 | 34269 ft | 431 kts | 195° |
| 2026-05-09 16:26 | 59.39234 | 18.54530 | 34265 ft | 431 kts | 195° |
| 2026-05-09 16:27 | 59.33403 | 18.51796 | 34267 ft | 431 kts | 195° |
| 2026-05-09 16:27 | 59.27569 | 18.49070 | 34270 ft | 431 kts | 195° |
| 2026-05-09 16:28 | 59.21729 | 18.46351 | 34268 ft | 431 kts | 195° |
| 2026-05-09 16:28 | 59.15903 | 18.43648 | 34268 ft | 431 kts | 195° |
| 2026-05-09 16:29 | 59.10091 | 18.40960 | 34268 ft | 431 kts | 195° |
| 2026-05-09 16:29 | 59.04264 | 18.38275 | 34264 ft | 430 kts | 195° |
| 2026-05-09 16:30 | 58.98443 | 18.35603 | 34261 ft | 430 kts | 195° |
| 2026-05-09 16:30 | 58.92628 | 18.32943 | 34264 ft | 429 kts | 195° |
| 2026-05-09 16:31 | 58.86823 | 18.30295 | 34260 ft | 428 kts | 195° |
| 2026-05-09 16:31 | 58.81032 | 18.27664 | 34259 ft | 427 kts | 195° |
| 2026-05-09 16:32 | 58.75297 | 18.25066 | 34258 ft | 426 kts | 194° |
| 2026-05-09 16:32 | 58.69523 | 18.22460 | 34261 ft | 425 kts | 194° |
| 2026-05-09 16:33 | 58.63770 | 18.19873 | 34248 ft | 425 kts | 194° |
| 2026-05-09 16:33 | 58.58013 | 18.17292 | 34258 ft | 424 kts | 194° |
| 2026-05-09 16:34 | 58.52309 | 18.14743 | 34244 ft | 424 kts | 194° |
| 2026-05-09 16:34 | 58.46570 | 18.12187 | 34252 ft | 423 kts | 194° |
| 2026-05-09 16:35 | 58.40831 | 18.09640 | 34246 ft | 423 kts | 194° |
| 2026-05-09 16:35 | 58.35099 | 18.07105 | 34251 ft | 423 kts | 194° |
| 2026-05-09 16:36 | 58.23672 | 18.02073 | 34244 ft | 423 kts | 194° |
| 2026-05-09 16:37 | 58.17936 | 17.99578 | 34239 ft | 423 kts | 193° |
| 2026-05-09 16:37 | 58.12183 | 17.97277 | 34241 ft | 422 kts | 193° |
| 2026-05-09 16:38 | 58.06428 | 17.95034 | 34233 ft | 422 kts | 193° |
| 2026-05-09 16:38 | 58.00716 | 17.92797 | 34235 ft | 422 kts | 193° |
| 2026-05-09 16:39 | 57.94969 | 17.90539 | 34228 ft | 421 kts | 193° |
| 2026-05-09 16:39 | 57.89236 | 17.88290 | 34239 ft | 421 kts | 193° |
| 2026-05-09 16:40 | 57.83514 | 17.86051 | 34224 ft | 420 kts | 193° |
| 2026-05-09 16:42 | 57.63021 | 17.78089 | 34245 ft | 452 kts | 195° |
| 2026-05-09 16:42 | 57.59923 | 17.76894 | 34242 ft | 457 kts | 195° |
| 2026-05-09 16:42 | 57.53658 | 17.74489 | 34225 ft | 461 kts | 194° |
| 2026-05-09 16:43 | 57.47472 | 17.72122 | 34214 ft | 452 kts | 194° |
| 2026-05-09 16:43 | 57.41294 | 17.69981 | 34226 ft | 453 kts | 192° |
| 2026-05-09 16:44 | 57.35057 | 17.68052 | 34229 ft | 455 kts | 192° |
| 2026-05-09 16:44 | 57.28787 | 17.66114 | 34226 ft | 457 kts | 192° |
| 2026-05-09 16:45 | 57.22548 | 17.64158 | 34227 ft | 459 kts | 192° |
| 2026-05-09 16:45 | 57.16243 | 17.62170 | 34228 ft | 460 kts | 192° |
| 2026-05-09 16:46 | 57.09934 | 17.60185 | 34229 ft | 460 kts | 192° |
| 2026-05-09 16:46 | 57.03624 | 17.58207 | 34225 ft | 460 kts | 192° |
| 2026-05-09 16:47 | 56.97363 | 17.56253 | 34219 ft | 459 kts | 192° |
| 2026-05-09 16:47 | 56.91071 | 17.54295 | 34223 ft | 458 kts | 192° |
| 2026-05-09 16:48 | 56.84788 | 17.52346 | 34222 ft | 458 kts | 192° |
| 2026-05-09 16:48 | 56.78508 | 17.50406 | 34224 ft | 457 kts | 192° |
| 2026-05-09 16:49 | 56.72237 | 17.48474 | 34227 ft | 457 kts | 192° |
| 2026-05-09 16:50 | 56.62866 | 17.45600 | 34222 ft | 457 kts | 191° |
| 2026-05-09 16:50 | 56.56586 | 17.43681 | 34224 ft | 458 kts | 191° |
| 2026-05-09 16:51 | 56.50298 | 17.41767 | 34223 ft | 459 kts | 191° |
| 2026-05-09 16:51 | 56.44065 | 17.39877 | 34211 ft | 453 kts | 191° |
| 2026-05-09 16:52 | 56.37889 | 17.38012 | 34212 ft | 448 kts | 191° |
| 2026-05-09 16:52 | 56.31758 | 17.36163 | 34069 ft | 443 kts | 191° |
| 2026-05-09 16:52 | 56.28737 | 17.35255 | 33706 ft | 438 kts | 191° |
| 2026-05-09 16:53 | 56.25733 | 17.34354 | 33207 ft | 438 kts | 191° |
| 2026-05-09 16:53 | 56.22726 | 17.33452 | 32716 ft | 437 kts | 191° |
| 2026-05-09 16:53 | 56.19732 | 17.32555 | 32320 ft | 435 kts | 191° |
| 2026-05-09 16:53 | 56.16806 | 17.31681 | 31985 ft | 431 kts | 191° |
| 2026-05-09 16:54 | 56.13859 | 17.30803 | 31644 ft | 427 kts | 191° |
| 2026-05-09 16:54 | 56.10937 | 17.29933 | 31282 ft | 424 kts | 191° |
| 2026-05-09 16:54 | 56.08039 | 17.29070 | 30922 ft | 421 kts | 191° |
| 2026-05-09 16:54 | 56.05157 | 17.28215 | 30571 ft | 419 kts | 191° |
| 2026-05-09 16:55 | 56.02291 | 17.27365 | 30227 ft | 416 kts | 191° |
| 2026-05-09 16:55 | 55.99450 | 17.26524 | 29819 ft | 412 kts | 191° |
| 2026-05-09 16:55 | 55.96631 | 17.25690 | 29417 ft | 409 kts | 191° |
| 2026-05-09 16:55 | 55.93866 | 17.24874 | 29016 ft | 406 kts | 191° |
| 2026-05-09 16:56 | 55.91090 | 17.24056 | 28617 ft | 403 kts | 191° |
| 2026-05-09 16:56 | 55.88334 | 17.23244 | 28230 ft | 400 kts | 191° |
| 2026-05-09 16:56 | 55.85600 | 17.22441 | 27859 ft | 397 kts | 191° |
| 2026-05-09 16:56 | 55.82877 | 17.21641 | 27479 ft | 394 kts | 190° |
| 2026-05-09 16:57 | 55.80185 | 17.20852 | 27109 ft | 392 kts | 190° |
| 2026-05-09 16:57 | 55.77503 | 17.20067 | 26747 ft | 389 kts | 190° |
| 2026-05-09 16:57 | 55.74851 | 17.19291 | 26395 ft | 386 kts | 190° |
| 2026-05-09 16:57 | 55.72202 | 17.18517 | 26034 ft | 384 kts | 190° |
| 2026-05-09 16:58 | 55.69579 | 17.17753 | 25685 ft | 381 kts | 190° |
| 2026-05-09 16:58 | 55.66966 | 17.17012 | 25349 ft | 379 kts | 187° |
| 2026-05-09 16:58 | 55.64379 | 17.16956 | 24986 ft | 377 kts | 173° |
| 2026-05-09 16:58 | 55.61816 | 17.17835 | 24660 ft | 373 kts | 162° |
| 2026-05-09 16:59 | 55.59422 | 17.19527 | 24339 ft | 370 kts | 154° |
| 2026-05-09 16:59 | 55.57095 | 17.21426 | 24011 ft | 367 kts | 153° |
| 2026-05-09 16:59 | 55.54792 | 17.23345 | 23663 ft | 365 kts | 153° |
| 2026-05-09 16:59 | 55.52502 | 17.25245 | 23295 ft | 363 kts | 154° |
| 2026-05-09 17:00 | 55.50224 | 17.27117 | 22931 ft | 360 kts | 154° |
| 2026-05-09 17:00 | 55.47954 | 17.28966 | 22558 ft | 358 kts | 154° |
| 2026-05-09 17:00 | 55.45700 | 17.30789 | 22197 ft | 356 kts | 154° |
| 2026-05-09 17:00 | 55.43499 | 17.32563 | 21790 ft | 349 kts | 154° |
| 2026-05-09 17:01 | 55.41314 | 17.34317 | 21478 ft | 339 kts | 154° |
| 2026-05-09 17:01 | 55.39188 | 17.36021 | 21068 ft | 334 kts | 154° |
| 2026-05-09 17:01 | 55.37088 | 17.37702 | 20559 ft | 331 kts | 155° |
| 2026-05-09 17:01 | 55.34991 | 17.39379 | 20049 ft | 330 kts | 155° |
| 2026-05-09 17:02 | 55.32909 | 17.41042 | 19581 ft | 327 kts | 155° |
| 2026-05-09 17:02 | 55.30849 | 17.42686 | 19131 ft | 324 kts | 155° |
| 2026-05-09 17:02 | 55.28804 | 17.44315 | 18677 ft | 322 kts | 155° |
| 2026-05-09 17:02 | 55.26775 | 17.45932 | 18198 ft | 319 kts | 155° |
| 2026-05-09 17:03 | 55.24765 | 17.47530 | 17703 ft | 316 kts | 155° |
| 2026-05-09 17:04 | 55.11167 | 17.58079 | 14480 ft | 297 kts | 155° |
| 2026-05-09 17:05 | 55.09288 | 17.59518 | 14058 ft | 294 kts | 155° |
| 2026-05-09 17:05 | 55.07418 | 17.60950 | 13571 ft | 292 kts | 155° |
| 2026-05-09 17:05 | 55.05587 | 17.62351 | 13086 ft | 291 kts | 155° |
| 2026-05-09 17:05 | 55.03742 | 17.63762 | 12617 ft | 289 kts | 155° |
| 2026-05-09 17:06 | 55.01907 | 17.65163 | 12148 ft | 287 kts | 156° |
| 2026-05-09 17:06 | 55.00084 | 17.66553 | 11689 ft | 285 kts | 156° |
| 2026-05-09 17:06 | 54.98275 | 17.67936 | 11245 ft | 283 kts | 154° |
| 2026-05-09 17:06 | 54.96653 | 17.69831 | 10766 ft | 281 kts | 135° |
| 2026-05-09 17:07 | 54.95299 | 17.72255 | 10347 ft | 279 kts | 133° |
| 2026-05-09 17:07 | 54.94421 | 17.73882 | 10047 ft | 278 kts | 132° |
| 2026-05-09 17:07 | 54.92673 | 17.77125 | 9419 ft | 276 kts | 132° |
| 2026-05-09 17:07 | 54.91363 | 17.79540 | 8989 ft | 273 kts | 133° |
| 2026-05-09 17:08 | 54.90053 | 17.81941 | 8607 ft | 274 kts | 133° |
| 2026-05-09 17:08 | 54.87451 | 17.86680 | 8112 ft | 269 kts | 133° |
| 2026-05-09 17:08 | 54.86159 | 17.89026 | 7830 ft | 268 kts | 133° |
| 2026-05-09 17:09 | 54.84871 | 17.91360 | 7567 ft | 267 kts | 132° |
| 2026-05-09 17:09 | 54.83592 | 17.93675 | 7295 ft | 265 kts | 132° |
| 2026-05-09 17:09 | 54.82315 | 17.95979 | 7032 ft | 264 kts | 132° |
| 2026-05-09 17:09 | 54.81042 | 17.98275 | 6779 ft | 263 kts | 132° |
| 2026-05-09 17:10 | 54.79764 | 18.00474 | 6540 ft | 262 kts | 139° |
| 2026-05-09 17:10 | 54.78314 | 18.02389 | 6261 ft | 262 kts | 143° |
| 2026-05-09 17:10 | 54.76828 | 18.04196 | 6043 ft | 261 kts | 144° |
| 2026-05-09 17:10 | 54.75342 | 18.05999 | 6008 ft | 262 kts | 144° |
| 2026-05-09 17:11 | 54.73854 | 18.07826 | 5999 ft | 262 kts | 143° |
| 2026-05-09 17:11 | 54.72374 | 18.09664 | 5989 ft | 261 kts | 143° |
| 2026-05-09 17:11 | 54.70904 | 18.11501 | 5986 ft | 259 kts | 143° |
| 2026-05-09 17:11 | 54.69471 | 18.13295 | 5974 ft | 249 kts | 143° |
| 2026-05-09 17:12 | 54.68115 | 18.14991 | 5982 ft | 241 kts | 143° |
| 2026-05-09 17:12 | 54.66773 | 18.16708 | 5980 ft | 238 kts | 138° |
| 2026-05-09 17:12 | 54.65570 | 18.18685 | 6011 ft | 242 kts | 133° |
| 2026-05-09 17:12 | 54.64377 | 18.20780 | 6002 ft | 247 kts | 133° |
| 2026-05-09 17:13 | 54.63165 | 18.22891 | 5989 ft | 246 kts | 133° |
| 2026-05-09 17:13 | 54.61950 | 18.24965 | 5985 ft | 246 kts | 138° |
| 2026-05-09 17:13 | 54.60433 | 18.26284 | 5916 ft | 247 kts | 172° |
| 2026-05-09 17:13 | 54.58758 | 18.26018 | 5744 ft | 242 kts | 199° |
| 2026-05-09 17:14 | 54.57187 | 18.24985 | 5467 ft | 242 kts | 204° |
| 2026-05-09 17:14 | 54.55662 | 18.23844 | 5230 ft | 241 kts | 208° |
| 2026-05-09 17:14 | 54.54415 | 18.22019 | 5039 ft | 236 kts | 240° |
| 2026-05-09 17:14 | 54.53875 | 18.19401 | 5006 ft | 231 kts | 267° |
| 2026-05-09 17:15 | 54.54059 | 18.16734 | 4986 ft | 220 kts | 290° |
| 2026-05-09 17:15 | 54.54596 | 18.14324 | 4981 ft | 213 kts | 294° |
| 2026-05-09 17:15 | 54.55175 | 18.11999 | 4982 ft | 210 kts | 292° |
| 2026-05-09 17:15 | 54.55258 | 18.09510 | 4981 ft | 216 kts | 252° |
| 2026-05-09 17:16 | 54.54364 | 18.07396 | 4978 ft | 228 kts | 216° |
| 2026-05-09 17:17 | 54.46221 | 18.12469 | 4120 ft | 225 kts | 110° |
| 2026-05-09 17:18 | 54.45626 | 18.14909 | 3953 ft | 218 kts | 111° |
| 2026-05-09 17:18 | 54.45047 | 18.17241 | 3740 ft | 205 kts | 111° |
| 2026-05-09 17:18 | 54.44507 | 18.19405 | 3561 ft | 190 kts | 110° |
| 2026-05-09 17:18 | 54.44013 | 18.21390 | 3471 ft | 176 kts | 110° |
| 2026-05-09 17:19 | 54.43535 | 18.23302 | 3489 ft | 172 kts | 110° |
| 2026-05-09 17:19 | 54.43068 | 18.25183 | 3320 ft | 173 kts | 110° |
| 2026-05-09 17:19 | 54.42603 | 18.27056 | 3080 ft | 168 kts | 110° |
| 2026-05-09 17:19 | 54.42161 | 18.28840 | 2818 ft | 158 kts | 110° |
| 2026-05-09 17:20 | 54.41747 | 18.30501 | 2572 ft | 146 kts | 110° |
| 2026-05-09 17:20 | 54.41351 | 18.32101 | 2372 ft | 147 kts | 110° |
| 2026-05-09 17:20 | 54.40959 | 18.33683 | 2143 ft | 144 kts | 109° |
| 2026-05-09 17:20 | 54.40572 | 18.35246 | 1918 ft | 140 kts | 110° |
| 2026-05-09 17:21 | 54.40189 | 18.36789 | 1697 ft | 142 kts | 109° |
| 2026-05-09 17:21 | 54.39812 | 18.38344 | 1455 ft | 139 kts | 104° |
| 2026-05-09 17:21 | 54.39464 | 18.39874 | 1248 ft | 137 kts | 101° |
| 2026-05-09 17:21 | 54.39101 | 18.41372 | 1043 ft | 136 kts | 111° |
| 2026-05-09 17:22 | 54.38703 | 18.42914 | 896 ft | 145 kts | 105° |
| 2026-05-09 17:22 | 54.38254 | 18.44555 | 623 ft | 156 kts | 111° |
| 2026-05-09 17:22 | 54.37877 | 18.46239 | 486 ft | 152 kts | 108° |
| 2026-05-09 17:22 | 54.37464 | 18.47847 | 1387 ft | 149 kts | 110° |
| 2026-05-09 17:23 | 54.36998 | 18.49596 | 2165 ft | 177 kts | 102° |
| 2026-05-09 17:23 | 54.37016 | 18.51942 | 2476 ft | 228 kts | 84° |
| 2026-05-09 17:23 | 54.36396 | 18.54792 | 2537 ft | 284 kts | 128° |
| 2026-05-09 17:23 | 54.34884 | 18.56931 | 2744 ft | 272 kts | 141° |
| 2026-05-09 17:25 | 54.31172 | 18.68714 | 3078 ft | 221 kts | 92° |
| 2026-05-09 17:25 | 54.30977 | 18.71329 | 3076 ft | 222 kts | 96° |
| 2026-05-09 17:25 | 54.30649 | 18.73898 | 3082 ft | 220 kts | 101° |
| 2026-05-09 17:25 | 54.30217 | 18.76397 | 3078 ft | 218 kts | 104° |
| 2026-05-09 17:26 | 54.29712 | 18.78839 | 3090 ft | 218 kts | 107° |
| 2026-05-09 17:26 | 54.29180 | 18.81272 | 3087 ft | 216 kts | 93° |
| 2026-05-09 17:26 | 54.29485 | 18.83670 | 3080 ft | 207 kts | 50° |
| 2026-05-09 17:26 | 54.30635 | 18.85015 | 3096 ft | 204 kts | 17° |
| 2026-05-09 17:27 | 54.31999 | 18.85788 | 3088 ft | 209 kts | 17° |
| 2026-05-09 17:27 | 54.33377 | 18.86560 | 3084 ft | 212 kts | 16° |
| 2026-05-09 17:27 | 54.34780 | 18.87339 | 3079 ft | 212 kts | 16° |
| 2026-05-09 17:27 | 54.36177 | 18.88116 | 3082 ft | 211 kts | 16° |
| 2026-05-09 17:28 | 54.37576 | 18.88862 | 3074 ft | 210 kts | 10° |
| 2026-05-09 17:28 | 54.38981 | 18.88507 | 3082 ft | 209 kts | 327° |
| 2026-05-09 17:28 | 54.39866 | 18.86568 | 3082 ft | 211 kts | 293° |
| 2026-05-09 17:28 | 54.40404 | 18.84228 | 3079 ft | 211 kts | 292° |
| 2026-05-09 17:29 | 54.40929 | 18.81915 | 3077 ft | 211 kts | 292° |
| 2026-05-09 17:29 | 54.41461 | 18.79562 | 3078 ft | 212 kts | 292° |
| 2026-05-09 17:29 | 54.41993 | 18.77201 | 3076 ft | 212 kts | 292° |
| 2026-05-09 17:29 | 54.42524 | 18.74832 | 3079 ft | 213 kts | 292° |
| 2026-05-09 17:30 | 54.43056 | 18.72463 | 3079 ft | 214 kts | 292° |
| 2026-05-09 17:30 | 54.43593 | 18.70065 | 3073 ft | 215 kts | 292° |
| 2026-05-09 17:30 | 54.44132 | 18.67667 | 3076 ft | 218 kts | 292° |
| 2026-05-09 17:30 | 54.44690 | 18.65172 | 3087 ft | 227 kts | 292° |
| 2026-05-09 17:31 | 54.45260 | 18.62635 | 3075 ft | 228 kts | 292° |
| 2026-05-09 17:31 | 54.45824 | 18.60134 | 3061 ft | 227 kts | 292° |
| 2026-05-09 17:32 | 54.48081 | 18.50119 | 3064 ft | 224 kts | 292° |
| 2026-05-09 17:32 | 54.48639 | 18.47623 | 3065 ft | 224 kts | 292° |
| 2026-05-09 17:32 | 54.49204 | 18.45128 | 3074 ft | 223 kts | 292° |
| 2026-05-09 17:33 | 54.49760 | 18.42665 | 3082 ft | 224 kts | 292° |
| 2026-05-09 17:33 | 54.50327 | 18.40161 | 3080 ft | 225 kts | 292° |
| 2026-05-09 17:33 | 54.50899 | 18.37642 | 3075 ft | 227 kts | 292° |
| 2026-05-09 17:33 | 54.51472 | 18.35110 | 3066 ft | 228 kts | 292° |
| 2026-05-09 17:34 | 54.52044 | 18.32570 | 3074 ft | 227 kts | 292° |
| 2026-05-09 17:35 | 54.51057 | 18.21743 | 3067 ft | 169 kts | 202° |
| 2026-05-09 17:35 | 54.50005 | 18.20964 | 3074 ft | 161 kts | 201° |
| 2026-05-09 17:36 | 54.49002 | 18.20218 | 3076 ft | 158 kts | 200° |
| 2026-05-09 17:36 | 54.47970 | 18.19589 | 3095 ft | 154 kts | 193° |
| 2026-05-09 17:36 | 54.46940 | 18.19177 | 3077 ft | 151 kts | 190° |
| 2026-05-09 17:36 | 54.45932 | 18.19110 | 3047 ft | 144 kts | 152° |
| 2026-05-09 17:37 | 54.45229 | 18.20324 | 3000 ft | 147 kts | 124° |
| 2026-05-09 17:37 | 54.44534 | 18.21578 | 2881 ft | 145 kts | 128° |
| 2026-05-09 17:37 | 54.43964 | 18.22973 | 2759 ft | 143 kts | 114° |
| 2026-05-09 17:37 | 54.43443 | 18.24436 | 2578 ft | 141 kts | 115° |
| 2026-05-09 17:38 | 54.43012 | 18.25969 | 2543 ft | 142 kts | 86° |
| 2026-05-09 17:38 | 54.42966 | 18.27623 | 2495 ft | 133 kts | 86° |
| 2026-05-09 17:38 | 54.42765 | 18.29203 | 2478 ft | 143 kts | 107° |
| 2026-05-09 17:39 | 54.41636 | 18.31983 | 2021 ft | 139 kts | 121° |
| 2026-05-09 17:39 | 54.41115 | 18.33352 | 1725 ft | 137 kts | 116° |
| 2026-05-09 17:39 | 54.40646 | 18.34872 | 1563 ft | 149 kts | 111° |
| 2026-05-09 17:39 | 54.40187 | 18.36491 | 1392 ft | 158 kts | 115° |
| 2026-05-09 17:40 | 54.39757 | 18.38247 | 1233 ft | 161 kts | 109° |
| 2026-05-09 17:40 | 54.39357 | 18.40020 | 1103 ft | 156 kts | 108° |
| 2026-05-09 17:40 | 54.38978 | 18.41689 | 884 ft | 146 kts | 110° |
| 2026-05-09 17:40 | 54.38588 | 18.43251 | 693 ft | 139 kts | 111° |
| 2026-05-09 17:41 | 54.38213 | 18.44742 | 526 ft | 131 kts | 109° |
| 2026-05-09 17:41 | 54.37881 | 18.46124 | 463 ft | 116 kts | 113° |
| 2026-05-09 17:41 | 54.37606 | 18.47245 | 460 ft | 85 kts | 116° |
| 2026-05-09 17:41 | 54.37425 | 18.47963 | 470 ft | 36 kts | 113° |
| 2026-05-09 17:42 | 54.37339 | 18.48311 | 480 ft | 29 kts | 112° |
| 2026-05-09 17:42 | 54.37309 | 18.48584 | 484 ft | 15 kts | 51° |
| 2026-05-09 17:42 | 54.37402 | 18.48650 | 487 ft | 14 kts | 9° |
| 2026-05-09 17:42 | 54.37461 | 18.48535 | 478 ft | 14 kts | 291° |
| 2026-05-09 17:43 | 54.37476 | 18.48475 | 477 ft | 2 kts | 292° |
| 2026-05-09 17:43 | 54.37484 | 18.48439 | 480 ft | 5 kts | 291° |
| 2026-05-09 17:43 | 54.37503 | 18.48368 | 481 ft | 8 kts | 293° |
| 2026-05-09 17:43 | 54.37533 | 18.48263 | 469 ft | 11 kts | 300° |
| 2026-05-09 17:44 | 54.37564 | 18.48129 | 468 ft | 13 kts | 292° |
| 2026-05-09 17:44 | 54.37603 | 18.47973 | 470 ft | 15 kts | 292° |
| 2026-05-09 17:44 | 54.37646 | 18.47802 | 467 ft | 15 kts | 292° |
| 2026-05-09 17:44 | 54.37683 | 18.47623 | 463 ft | 16 kts | 288° |
| 2026-05-09 17:45 | 54.37732 | 18.47451 | 461 ft | 16 kts | 295° |
| 2026-05-09 17:45 | 54.37775 | 18.47281 | 459 ft | 15 kts | 295° |
| 2026-05-09 17:45 | 54.37815 | 18.47114 | 458 ft | 15 kts | 293° |
| 2026-05-09 17:45 | 54.37855 | 18.46956 | 459 ft | 14 kts | 293° |
| 2026-05-09 17:46 | 54.37894 | 18.46805 | 457 ft | 14 kts | 293° |
| 2026-05-09 17:46 | 54.37929 | 18.46661 | 458 ft | 13 kts | 293° |
| 2026-05-09 17:46 | 54.37995 | 18.46587 | 459 ft | 13 kts | 19° |
| 2026-05-09 17:46 | 54.38076 | 18.46582 | 458 ft | 13 kts | 319° |
| 2026-05-09 17:47 | 54.38110 | 18.46445 | 456 ft | 12 kts | 293° |
| 2026-05-09 17:47 | 54.38143 | 18.46311 | 459 ft | 12 kts | 298° |
| 2026-05-09 17:47 | 54.38188 | 18.46309 | 459 ft | 0 kts | 27° |
| 2026-05-09 17:48 | 54.38194 | 18.46316 | 457 ft | 0 kts | 30° |